createdAt,value
2023-08-15T00:01:29.981Z,23.39
2023-08-15T00:06:37.876Z,23.34
2023-08-15T00:11:45.398Z,23.28
2023-08-15T00:16:53.129Z,23.23
2023-08-15T00:22:01.074Z,23.18
2023-08-15T00:27:09.228Z,23.13
2023-08-15T00:32:17.202Z,23.08
2023-08-15T00:37:25.150Z,23.02
2023-08-15T00:42:32.664Z,22.97
2023-08-15T00:47:41.221Z,22.92
2023-08-15T00:52:49.238Z,22.86
2023-08-15T00:57:57.315Z,22.82
2023-08-15T01:03:05.146Z,22.77
2023-08-15T01:08:13.561Z,22.73
2023-08-15T01:13:29.033Z,22.68
2023-08-15T01:18:42.304Z,22.65
2023-08-15T01:23:52.433Z,22.61
2023-08-15T01:29:00.423Z,22.57
2023-08-15T01:34:14.070Z,22.54
2023-08-15T01:39:30.308Z,22.50
2023-08-15T01:44:39.443Z,22.48
2023-08-15T01:49:47.787Z,22.45
2023-08-15T01:54:55.865Z,22.42
2023-08-15T02:00:03.684Z,22.40
2023-08-15T02:05:23.787Z,22.38
2023-08-15T02:10:32.145Z,22.35
2023-08-15T02:15:39.813Z,22.34
2023-08-15T02:20:47.463Z,22.33
2023-08-15T02:25:55.494Z,22.31
2023-08-15T02:31:06.637Z,22.30
2023-08-15T02:36:15.123Z,22.29
2023-08-15T02:41:23.599Z,22.27
2023-08-15T02:46:31.284Z,22.26
2023-08-15T02:51:38.685Z,22.25
2023-08-15T02:56:46.260Z,22.23
2023-08-15T03:01:55.121Z,22.23
2023-08-15T03:07:02.974Z,22.21
2023-08-15T03:12:11.400Z,22.20
2023-08-15T03:17:20.984Z,22.19
2023-08-15T03:22:29.190Z,22.18
2023-08-15T03:27:37.541Z,22.17
2023-08-15T03:32:45.987Z,22.16
2023-08-15T03:37:54.342Z,22.15
2023-08-15T03:43:02.695Z,22.13
2023-08-15T03:48:12.771Z,22.13
2023-08-15T03:53:20.361Z,22.12
2023-08-15T03:58:28.405Z,22.12
2023-08-15T04:03:37.161Z,22.12
2023-08-15T04:08:45.008Z,22.12
2023-08-15T04:13:52.903Z,22.13
2023-08-15T04:19:00.562Z,22.14
2023-08-15T04:24:09.307Z,22.16
2023-08-15T04:29:16.975Z,22.17
2023-08-15T04:34:24.692Z,22.20
2023-08-15T04:39:32.752Z,22.22
2023-08-15T04:44:41.482Z,22.26
2023-08-15T04:49:50.298Z,22.28
2023-08-15T04:54:58.585Z,22.32
2023-08-15T05:00:10.364Z,22.35
2023-08-15T05:05:20.167Z,22.39
2023-08-15T05:10:28.192Z,22.43
2023-08-15T05:15:35.843Z,22.48
2023-08-15T05:20:44.038Z,22.53
2023-08-15T05:25:51.962Z,22.59
2023-08-15T05:30:59.845Z,22.66
2023-08-15T05:36:08.041Z,22.77
2023-08-15T05:41:15.677Z,22.91
2023-08-15T05:46:23.281Z,23.04
2023-08-15T05:51:30.759Z,23.20
2023-08-15T05:56:38.283Z,23.35
2023-08-15T06:01:46.117Z,23.52
2023-08-15T06:06:53.605Z,23.69
2023-08-15T06:12:01.169Z,23.86
2023-08-15T06:17:09.408Z,24.02
2023-08-15T06:22:17.104Z,24.18
2023-08-15T06:27:24.771Z,24.35
2023-08-15T06:32:33.602Z,24.53
2023-08-15T06:37:41.407Z,24.70
2023-08-15T06:42:49.771Z,24.91
2023-08-15T06:47:57.370Z,25.15
2023-08-15T06:53:04.898Z,25.41
2023-08-15T06:58:12.606Z,25.64
2023-08-15T07:03:21.359Z,25.84
2023-08-15T07:08:29.024Z,26.03
2023-08-15T07:13:36.693Z,26.22
2023-08-15T07:18:44.096Z,26.39
2023-08-15T07:23:51.946Z,26.57
2023-08-15T07:28:59.522Z,26.75
2023-08-15T07:34:07.634Z,26.93
2023-08-15T07:39:15.359Z,27.11
2023-08-15T07:44:23.111Z,27.29
2023-08-15T07:49:33.762Z,27.48
2023-08-15T07:54:47.093Z,27.68
2023-08-15T07:59:54.630Z,27.87
2023-08-15T08:05:02.090Z,28.06
2023-08-15T08:10:11.241Z,28.25
2023-08-15T08:15:18.760Z,28.45
2023-08-15T08:20:26.928Z,28.65
2023-08-15T08:25:34.375Z,28.86
2023-08-15T08:30:44.069Z,29.06
2023-08-15T08:35:52.180Z,29.25
2023-08-15T08:41:00.374Z,29.46
2023-08-15T08:46:11.391Z,29.68
2023-08-15T08:51:21.116Z,29.86
2023-08-15T08:56:30.813Z,30.03
2023-08-15T09:01:40.701Z,30.17
2023-08-15T09:06:48.835Z,30.31
2023-08-15T09:11:57.204Z,30.44
2023-08-15T09:17:04.926Z,30.56
2023-08-15T09:22:23.280Z,30.66
2023-08-15T09:27:31.142Z,30.78
2023-08-15T09:32:38.581Z,30.89
2023-08-15T09:37:50.472Z,31.00
2023-08-15T09:42:58.092Z,31.12
2023-08-15T09:48:07.631Z,31.23
2023-08-15T09:53:16.438Z,31.33
2023-08-15T09:58:24.052Z,31.43
2023-08-15T10:03:36.788Z,31.52
2023-08-15T10:08:45.447Z,31.63
2023-08-15T10:13:55.382Z,31.72
2023-08-15T10:19:04.447Z,31.81
2023-08-15T10:24:14.351Z,31.91
2023-08-15T10:29:22.187Z,32.03
2023-08-15T10:34:34.855Z,32.13
2023-08-15T10:39:44.478Z,32.23
2023-08-15T10:45:04.520Z,32.32
2023-08-15T10:50:14.099Z,32.40
2023-08-15T10:55:21.923Z,32.47
2023-08-15T11:00:30.574Z,32.54
2023-08-15T11:05:38.334Z,32.61
2023-08-15T11:10:52.016Z,32.68
2023-08-15T11:16:00.086Z,32.76
2023-08-15T11:21:10.325Z,32.85
2023-08-15T11:26:19.747Z,32.93
2023-08-15T11:31:27.832Z,33.02
2023-08-15T11:36:35.881Z,33.10
2023-08-15T11:41:43.863Z,33.17
2023-08-15T11:46:55.161Z,33.24
2023-08-15T11:52:08.709Z,33.32
2023-08-15T11:57:16.414Z,33.41
2023-08-15T12:02:23.986Z,33.51
2023-08-15T12:07:36.079Z,33.62
2023-08-15T12:12:46.140Z,33.72
2023-08-15T12:17:53.788Z,33.81
2023-08-15T12:23:01.826Z,33.89
2023-08-15T12:28:10.686Z,33.96
2023-08-15T12:33:27.349Z,34.03
2023-08-15T12:38:46.068Z,34.10
2023-08-15T12:43:54.187Z,34.14
2023-08-15T12:49:04.042Z,34.18
2023-08-15T12:54:11.786Z,34.20
2023-08-15T12:59:19.735Z,34.24
2023-08-15T13:04:27.468Z,34.29
2023-08-15T13:09:35.136Z,34.34
2023-08-15T13:14:45.892Z,34.40
2023-08-15T13:19:53.428Z,34.46
2023-08-15T13:25:01.230Z,34.52
2023-08-15T13:30:10.618Z,34.57
2023-08-15T13:35:18.224Z,34.62
2023-08-15T13:40:25.911Z,34.67
2023-08-15T13:45:33.731Z,34.71
2023-08-15T13:50:41.424Z,34.76
2023-08-15T13:55:49.599Z,34.80
2023-08-15T14:00:57.077Z,34.84
2023-08-15T14:06:06.212Z,34.88
2023-08-15T14:11:13.717Z,34.90
2023-08-15T14:16:22.026Z,34.92
2023-08-15T14:21:29.924Z,34.94
2023-08-15T14:26:37.233Z,34.98
2023-08-15T14:31:44.571Z,35.00
2023-08-15T14:36:52.959Z,35.02
2023-08-15T14:42:00.294Z,35.02
2023-08-15T14:47:08.352Z,35.02
2023-08-15T14:52:15.814Z,35.03
2023-08-15T14:57:23.686Z,35.04
2023-08-15T15:02:32.177Z,35.04
2023-08-15T15:07:39.544Z,35.04
2023-08-15T15:12:47.044Z,35.03
2023-08-15T15:17:55.186Z,35.01
2023-08-15T15:23:02.763Z,34.99
2023-08-15T15:28:10.747Z,34.98
2023-08-15T15:33:18.833Z,34.97
2023-08-15T15:38:26.522Z,34.95
2023-08-15T15:43:34.056Z,34.93
2023-08-15T15:48:41.468Z,34.91
2023-08-15T15:53:49.290Z,34.89
2023-08-15T15:58:57.257Z,34.86
2023-08-15T16:04:04.954Z,34.83
2023-08-15T16:09:15.375Z,34.81
2023-08-15T16:14:23.108Z,34.78
2023-08-15T16:19:30.755Z,34.72
2023-08-15T16:24:38.237Z,34.69
2023-08-15T16:29:45.785Z,34.64
2023-08-15T16:34:53.586Z,34.59
2023-08-15T16:40:01.057Z,34.54
2023-08-15T16:45:10.290Z,34.49
2023-08-15T16:50:18.294Z,34.44
2023-08-15T16:55:26.110Z,34.39
2023-08-15T17:00:34.151Z,34.33
2023-08-15T17:05:42.049Z,34.27
2023-08-15T17:10:49.766Z,34.20
2023-08-15T17:15:57.852Z,34.12
2023-08-15T17:21:05.818Z,34.04
2023-08-15T17:26:13.556Z,33.95
2023-08-15T17:31:21.459Z,33.84
2023-08-15T17:36:30.631Z,33.71
2023-08-15T17:41:38.505Z,33.57
2023-08-15T17:46:46.113Z,33.41
2023-08-15T17:51:53.906Z,33.24
2023-08-15T17:57:01.385Z,33.04
2023-08-15T18:02:09.281Z,32.83
2023-08-15T18:07:17.341Z,32.59
2023-08-15T18:12:25.193Z,32.33
2023-08-15T18:17:32.890Z,32.06
2023-08-15T18:22:40.428Z,31.76
2023-08-15T18:27:47.933Z,31.45
2023-08-15T18:32:55.336Z,31.14
2023-08-15T18:38:03.066Z,30.82
2023-08-15T18:43:10.683Z,30.49
2023-08-15T18:48:19.913Z,30.19
2023-08-15T18:53:27.746Z,29.87
2023-08-15T18:58:35.280Z,29.57
2023-08-15T19:03:43.315Z,29.26
2023-08-15T19:08:50.914Z,28.95
2023-08-15T19:13:58.449Z,28.66
2023-08-15T19:19:06.442Z,28.37
2023-08-15T19:24:19.353Z,28.09
2023-08-15T19:29:26.768Z,27.82
2023-08-15T19:34:34.213Z,27.56
2023-08-15T19:39:41.943Z,27.32
2023-08-15T19:44:50.673Z,27.07
2023-08-15T19:49:58.219Z,26.82
2023-08-15T19:55:06.818Z,26.58
2023-08-15T20:00:16.219Z,26.34
2023-08-15T20:05:23.989Z,26.11
2023-08-15T20:10:31.867Z,25.89
2023-08-15T20:15:42.119Z,25.69
2023-08-15T20:20:50.148Z,25.49
2023-08-15T20:25:57.739Z,25.30
2023-08-15T20:31:06.221Z,25.12
2023-08-15T20:36:15.127Z,24.95
2023-08-15T20:41:22.637Z,24.81
2023-08-15T20:46:41.284Z,24.66
2023-08-15T20:51:49.349Z,24.51
2023-08-15T20:56:57.334Z,24.37
2023-08-15T21:02:05.190Z,24.22
2023-08-15T21:07:14.245Z,24.08
2023-08-15T21:12:22.108Z,23.95
2023-08-15T21:17:30.074Z,23.82
2023-08-15T21:22:38.563Z,23.71
2023-08-15T21:27:46.533Z,23.59
2023-08-15T21:32:54.047Z,23.48
2023-08-15T21:38:02.097Z,23.36
2023-08-15T21:43:09.806Z,23.25
2023-08-15T21:48:17.279Z,23.15
2023-08-15T21:53:24.788Z,23.08
2023-08-15T21:58:32.414Z,23.03
2023-08-15T22:03:39.932Z,22.98
2023-08-15T22:08:47.664Z,22.96
2023-08-15T22:13:55.047Z,22.95
2023-08-15T22:19:03.577Z,22.94
2023-08-15T22:24:11.849Z,22.92
2023-08-15T22:29:19.719Z,22.91
2023-08-15T22:34:27.458Z,22.88
2023-08-15T22:39:35.193Z,22.86
2023-08-15T22:44:42.710Z,22.84
2023-08-15T22:49:50.391Z,22.80
2023-08-15T22:54:57.954Z,22.76
2023-08-15T23:00:06.446Z,22.74
2023-08-15T23:05:14.588Z,22.72
2023-08-15T23:10:22.683Z,22.70
2023-08-15T23:15:30.234Z,22.67
2023-08-15T23:20:37.685Z,22.66
2023-08-15T23:25:45.365Z,22.63
2023-08-15T23:30:54.963Z,22.60
2023-08-15T23:36:02.440Z,22.57
2023-08-15T23:41:09.962Z,22.54
2023-08-15T23:46:17.268Z,22.51
2023-08-15T23:51:24.828Z,22.47
2023-08-15T23:56:32.468Z,22.42
